sensor_id;sensor_type;location;lat;lon;timestamp;pressure;altitude;pressure_sealevel;temperature;humidity
64933;BME280;51446;53.850;10.662;2023-07-24T00:00:31;100266.44;;;16.65;100.00
64933;BME280;51446;53.850;10.662;2023-07-24T00:02:59;100264.69;;;16.67;100.00
64933;BME280;51446;53.850;10.662;2023-07-24T00:05:24;100264.53;;;16.75;100.00
64933;BME280;51446;53.850;10.662;2023-07-24T00:07:49;100262.00;;;16.69;100.00
64933;BME280;51446;53.850;10.662;2023-07-24T00:10:14;100263.78;;;16.67;100.00
64933;BME280;51446;53.850;10.662;2023-07-24T00:12:39;100264.78;;;16.61;100.00
64933;BME280;51446;53.850;10.662;2023-07-24T00:15:06;100256.63;;;16.72;100.00
64933;BME280;51446;53.850;10.662;2023-07-24T00:17:31;100248.78;;;16.67;100.00
64933;BME280;51446;53.850;10.662;2023-07-24T00:19:56;100247.88;;;16.67;100.00
64933;BME280;51446;53.850;10.662;2023-07-24T00:22:22;100251.34;;;16.72;100.00
64933;BME280;51446;53.850;10.662;2023-07-24T00:24:47;100257.50;;;16.72;100.00
64933;BME280;51446;53.850;10.662;2023-07-24T00:27:12;100239.94;;;16.68;100.00
64933;BME280;51446;53.850;10.662;2023-07-24T00:29:39;100245.28;;;16.65;100.00
64933;BME280;51446;53.850;10.662;2023-07-24T00:32:04;100238.09;;;16.72;100.00
64933;BME280;51446;53.850;10.662;2023-07-24T00:34:30;100240.00;;;16.63;100.00
64933;BME280;51446;53.850;10.662;2023-07-24T00:36:55;100242.53;;;16.71;100.00
64933;BME280;51446;53.850;10.662;2023-07-24T00:39:20;100237.38;;;16.63;100.00
64933;BME280;51446;53.850;10.662;2023-07-24T00:41:45;100239.09;;;16.66;100.00
64933;BME280;51446;53.850;10.662;2023-07-24T00:44:10;100237.22;;;16.73;100.00
64933;BME280;51446;53.850;10.662;2023-07-24T00:46:37;100236.47;;;16.64;100.00
64933;BME280;51446;53.850;10.662;2023-07-24T00:49:04;100226.72;;;16.67;100.00
64933;BME280;51446;53.850;10.662;2023-07-24T00:51:30;100224.84;;;16.73;100.00
64933;BME280;51446;53.850;10.662;2023-07-24T00:54:00;100224.00;;;16.71;100.00
64933;BME280;51446;53.850;10.662;2023-07-24T00:56:26;100222.25;;;16.70;100.00
64933;BME280;51446;53.850;10.662;2023-07-24T00:58:51;100227.75;;;16.58;100.00
64933;BME280;51446;53.850;10.662;2023-07-24T01:01:17;100235.47;;;16.72;100.00
64933;BME280;51446;53.850;10.662;2023-07-24T01:03:43;100224.16;;;16.62;100.00
64933;BME280;51446;53.850;10.662;2023-07-24T01:06:09;100229.59;;;16.54;100.00
64933;BME280;51446;53.850;10.662;2023-07-24T01:08:34;100233.88;;;16.61;100.00
64933;BME280;51446;53.850;10.662;2023-07-24T01:11:05;100226.22;;;16.44;100.00
64933;BME280;51446;53.850;10.662;2023-07-24T01:13:36;100229.53;;;16.57;100.00
64933;BME280;51446;53.850;10.662;2023-07-24T01:16:22;100227.09;;;16.46;100.00
64933;BME280;51446;53.850;10.662;2023-07-24T01:18:51;100230.56;;;16.48;100.00
64933;BME280;51446;53.850;10.662;2023-07-24T01:21:20;100215.75;;;16.38;100.00
64933;BME280;51446;53.850;10.662;2023-07-24T01:27:08;100233.75;;;16.16;100.00
64933;BME280;51446;53.850;10.662;2023-07-24T01:29:33;100227.38;;;16.29;100.00
64933;BME280;51446;53.850;10.662;2023-07-24T01:31:58;100230.06;;;16.26;100.00
64933;BME280;51446;53.850;10.662;2023-07-24T01:34:24;100232.09;;;16.10;100.00
64933;BME280;51446;53.850;10.662;2023-07-24T01:36:49;100229.25;;;16.23;100.00
64933;BME280;51446;53.850;10.662;2023-07-24T01:39:15;100233.63;;;16.25;100.00
64933;BME280;51446;53.850;10.662;2023-07-24T01:41:42;100233.53;;;16.30;100.00
64933;BME280;51446;53.850;10.662;2023-07-24T01:44:07;100230.00;;;16.31;100.00
64933;BME280;51446;53.850;10.662;2023-07-24T01:46:33;100223.81;;;16.32;100.00
64933;BME280;51446;53.850;10.662;2023-07-24T01:48:58;100222.88;;;16.33;100.00
64933;BME280;51446;53.850;10.662;2023-07-24T01:51:23;100228.25;;;16.30;100.00
64933;BME280;51446;53.850;10.662;2023-07-24T01:53:48;100226.44;;;16.34;100.00
64933;BME280;51446;53.850;10.662;2023-07-24T01:56:14;100225.59;;;16.30;100.00
64933;BME280;51446;53.850;10.662;2023-07-24T01:58:39;100224.44;;;16.46;100.00
64933;BME280;51446;53.850;10.662;2023-07-24T02:01:04;100223.75;;;16.35;100.00
64933;BME280;51446;53.850;10.662;2023-07-24T02:03:29;100220.22;;;16.35;100.00
64933;BME280;51446;53.850;10.662;2023-07-24T02:05:55;100214.16;;;16.29;100.00
64933;BME280;51446;53.850;10.662;2023-07-24T02:08:20;100212.41;;;16.27;100.00
64933;BME280;51446;53.850;10.662;2023-07-24T02:10:48;100215.16;;;16.22;100.00
64933;BME280;51446;53.850;10.662;2023-07-24T02:13:13;100208.09;;;16.21;100.00
64933;BME280;51446;53.850;10.662;2023-07-24T02:15:39;100220.53;;;16.18;100.00
64933;BME280;51446;53.850;10.662;2023-07-24T02:18:05;100220.66;;;16.08;100.00
64933;BME280;51446;53.850;10.662;2023-07-24T02:20:30;100210.19;;;16.02;100.00
64933;BME280;51446;53.850;10.662;2023-07-24T02:22:56;100218.97;;;16.03;100.00
64933;BME280;51446;53.850;10.662;2023-07-24T02:25:21;100226.97;;;15.98;100.00
64933;BME280;51446;53.850;10.662;2023-07-24T02:27:46;100209.13;;;16.12;100.00
64933;BME280;51446;53.850;10.662;2023-07-24T02:30:11;100211.94;;;16.00;100.00
64933;BME280;51446;53.850;10.662;2023-07-24T02:32:37;100215.56;;;15.96;100.00
64933;BME280;51446;53.850;10.662;2023-07-24T02:35:02;100221.50;;;16.10;100.00
64933;BME280;51446;53.850;10.662;2023-07-24T02:37:27;100216.22;;;16.10;100.00
64933;BME280;51446;53.850;10.662;2023-07-24T02:39:53;100200.41;;;16.06;100.00
64933;BME280;51446;53.850;10.662;2023-07-24T02:42:18;100208.41;;;16.01;100.00
64933;BME280;51446;53.850;10.662;2023-07-24T02:44:43;100202.13;;;16.08;100.00
64933;BME280;51446;53.850;10.662;2023-07-24T02:47:08;100204.97;;;15.98;100.00
64933;BME280;51446;53.850;10.662;2023-07-24T02:49:34;100204.84;;;16.04;100.00
64933;BME280;51446;53.850;10.662;2023-07-24T02:51:59;100211.28;;;15.86;100.00
64933;BME280;51446;53.850;10.662;2023-07-24T02:54:25;100219.22;;;15.89;100.00
64933;BME280;51446;53.850;10.662;2023-07-24T02:56:51;100213.06;;;15.85;100.00
64933;BME280;51446;53.850;10.662;2023-07-24T02:59:16;100210.44;;;15.84;100.00
64933;BME280;51446;53.850;10.662;2023-07-24T03:01:41;100215.63;;;15.91;100.00
64933;BME280;51446;53.850;10.662;2023-07-24T03:04:07;100215.56;;;15.96;100.00
64933;BME280;51446;53.850;10.662;2023-07-24T03:06:32;100213.91;;;15.90;100.00
64933;BME280;51446;53.850;10.662;2023-07-24T03:08:57;100213.19;;;15.79;100.00
64933;BME280;51446;53.850;10.662;2023-07-24T03:11:22;100214.91;;;15.78;100.00
64933;BME280;51446;53.850;10.662;2023-07-24T03:13:48;100213.19;;;15.76;100.00
64933;BME280;51446;53.850;10.662;2023-07-24T03:16:13;100212.28;;;15.75;100.00
64933;BME280;51446;53.850;10.662;2023-07-24T03:18:38;100206.09;;;15.80;100.00
64933;BME280;51446;53.850;10.662;2023-07-24T03:21:04;100206.09;;;15.81;100.00
64933;BME280;51446;53.850;10.662;2023-07-24T03:23:29;100209.63;;;15.82;100.00
64933;BME280;51446;53.850;10.662;2023-07-24T03:25:54;100207.69;;;15.91;100.00
64933;BME280;51446;53.850;10.662;2023-07-24T03:28:20;100202.34;;;15.94;100.00
64933;BME280;51446;53.850;10.662;2023-07-24T03:30:45;100206.78;;;15.92;100.00
64933;BME280;51446;53.850;10.662;2023-07-24T03:33:10;100204.97;;;15.98;100.00
64933;BME280;51446;53.850;10.662;2023-07-24T03:35:37;100205.00;;;15.94;100.00
64933;BME280;51446;53.850;10.662;2023-07-24T03:38:02;100211.16;;;15.97;100.00
64933;BME280;51446;53.850;10.662;2023-07-24T03:40:28;100214.56;;;16.02;100.00
64933;BME280;51446;53.850;10.662;2023-07-24T03:42:53;100217.25;;;16.00;100.00
64933;BME280;51446;53.850;10.662;2023-07-24T03:45:18;100214.59;;;16.00;100.00
64933;BME280;51446;53.850;10.662;2023-07-24T03:47:43;100207.38;;;16.11;100.00
64933;BME280;51446;53.850;10.662;2023-07-24T03:50:09;100208.13;;;16.20;100.00
64933;BME280;51446;53.850;10.662;2023-07-24T03:52:34;100201.84;;;16.27;100.00
64933;BME280;51446;53.850;10.662;2023-07-24T03:54:59;100206.19;;;16.31;100.00
64933;BME280;51446;53.850;10.662;2023-07-24T03:57:25;100204.28;;;16.39;100.00
64933;BME280;51446;53.850;10.662;2023-07-24T03:59:50;100197.97;;;16.46;100.00
64933;BME280;51446;53.850;10.662;2023-07-24T04:02:15;100189.19;;;16.44;100.00
64933;BME280;51446;53.850;10.662;2023-07-24T04:04:40;100193.66;;;16.42;100.00
64933;BME280;51446;53.850;10.662;2023-07-24T04:07:06;100183.09;;;16.41;100.00
64933;BME280;51446;53.850;10.662;2023-07-24T04:09:31;100186.28;;;16.58;100.00
64933;BME280;51446;53.850;10.662;2023-07-24T04:11:57;100192.34;;;16.63;100.00
64933;BME280;51446;53.850;10.662;2023-07-24T04:14:22;100182.59;;;16.67;100.00
64933;BME280;51446;53.850;10.662;2023-07-24T04:16:47;100187.66;;;16.79;100.00
64933;BME280;51446;53.850;10.662;2023-07-24T04:19:13;100199.00;;;16.86;100.00
64933;BME280;51446;53.850;10.662;2023-07-24T04:21:38;100198.19;;;16.84;100.00
64933;BME280;51446;53.850;10.662;2023-07-24T04:24:03;100201.50;;;16.97;100.00
64933;BME280;51446;53.850;10.662;2023-07-24T04:26:29;100197.09;;;16.96;100.00
64933;BME280;51446;53.850;10.662;2023-07-24T04:28:54;100194.28;;;17.04;100.00
64933;BME280;51446;53.850;10.662;2023-07-24T04:31:19;100195.44;;;16.90;100.00
64933;BME280;51446;53.850;10.662;2023-07-24T04:33:44;100187.09;;;17.10;100.00
64933;BME280;51446;53.850;10.662;2023-07-24T04:36:10;100187.88;;;17.14;100.00
64933;BME280;51446;53.850;10.662;2023-07-24T04:38:35;100192.34;;;17.12;100.00
64933;BME280;51446;53.850;10.662;2023-07-24T04:41:01;100187.84;;;17.17;100.00
64933;BME280;51446;53.850;10.662;2023-07-24T04:43:27;100178.75;;;17.29;100.00
64933;BME280;51446;53.850;10.662;2023-07-24T04:45:52;100178.66;;;17.33;100.00
64933;BME280;51446;53.850;10.662;2023-07-24T04:48:17;100184.94;;;17.28;100.00
64933;BME280;51446;53.850;10.662;2023-07-24T04:50:43;100173.31;;;17.35;100.00
64933;BME280;51446;53.850;10.662;2023-07-24T04:53:08;100164.38;;;17.39;100.00
64933;BME280;51446;53.850;10.662;2023-07-24T04:55:33;100158.31;;;17.34;100.00
64933;BME280;51446;53.850;10.662;2023-07-24T04:57:59;100167.16;;;17.34;100.00
64933;BME280;51446;53.850;10.662;2023-07-24T05:00:24;100167.00;;;17.41;100.00
64933;BME280;51446;53.850;10.662;2023-07-24T05:02:50;100165.66;;;17.62;100.00
64933;BME280;51446;53.850;10.662;2023-07-24T05:05:15;100165.50;;;17.68;100.00
64933;BME280;51446;53.850;10.662;2023-07-24T05:07:40;100160.16;;;17.69;100.00
64933;BME280;51446;53.850;10.662;2023-07-24T05:10:06;100162.88;;;17.66;100.00
64933;BME280;51446;53.850;10.662;2023-07-24T05:12:31;100160.28;;;17.65;100.00
64933;BME280;51446;53.850;10.662;2023-07-24T05:14:56;100162.81;;;17.69;100.00
64933;BME280;51446;53.850;10.662;2023-07-24T05:17:22;100158.44;;;17.67;100.00
64933;BME280;51446;53.850;10.662;2023-07-24T05:19:47;100152.28;;;17.66;100.00
64933;BME280;51446;53.850;10.662;2023-07-24T05:22:12;100156.72;;;17.64;100.00
64933;BME280;51446;53.850;10.662;2023-07-24T05:24:37;100156.53;;;17.74;100.00
64933;BME280;51446;53.850;10.662;2023-07-24T05:27:05;100147.44;;;17.84;100.00
64933;BME280;51446;53.850;10.662;2023-07-24T05:29:31;100149.06;;;17.91;100.00
64933;BME280;51446;53.850;10.662;2023-07-24T05:31:57;100149.97;;;17.89;100.00
64933;BME280;51446;53.850;10.662;2023-07-24T05:34:23;100135.84;;;17.88;100.00
64933;BME280;51446;53.850;10.662;2023-07-24T05:36:49;100139.31;;;17.92;100.00
64933;BME280;51446;53.850;10.662;2023-07-24T05:39:14;100137.44;;;17.97;100.00
64933;BME280;51446;53.850;10.662;2023-07-24T05:41:39;100131.84;;;18.08;100.00
64933;BME280;51446;53.850;10.662;2023-07-24T05:44:05;100135.94;;;18.21;100.00
64933;BME280;51446;53.850;10.662;2023-07-24T05:46:30;100126.44;;;18.47;100.00
64933;BME280;51446;53.850;10.662;2023-07-24T05:48:55;100122.47;;;18.62;100.00
64933;BME280;51446;53.850;10.662;2023-07-24T05:51:21;100119.91;;;18.59;100.00
64933;BME280;51446;53.850;10.662;2023-07-24T05:53:47;100123.22;;;18.65;100.00
64933;BME280;51446;53.850;10.662;2023-07-24T05:56:12;100118.00;;;18.95;100.00
64933;BME280;51446;53.850;10.662;2023-07-24T05:58:37;100119.47;;;18.74;100.00
64933;BME280;51446;53.850;10.662;2023-07-24T06:01:02;100116.44;;;18.88;100.00
64933;BME280;51446;53.850;10.662;2023-07-24T06:03:28;100120.56;;;18.98;100.00
64933;BME280;51446;53.850;10.662;2023-07-24T06:05:54;100114.69;;;18.85;100.00
64933;BME280;51446;53.850;10.662;2023-07-24T06:08:20;100121.50;;;18.64;100.00
64933;BME280;51446;53.850;10.662;2023-07-24T06:10:46;100116.25;;;18.63;100.00
64933;BME280;51446;53.850;10.662;2023-07-24T06:13:12;100117.06;;;18.65;100.00
64933;BME280;51446;53.850;10.662;2023-07-24T06:15:38;100126.50;;;18.75;100.00
64933;BME280;51446;53.850;10.662;2023-07-24T06:18:03;100134.19;;;18.86;100.00
64933;BME280;51446;53.850;10.662;2023-07-24T06:20:28;100118.88;;;18.96;100.00
64933;BME280;51446;53.850;10.662;2023-07-24T06:22:53;100120.84;;;18.89;100.00
64933;BME280;51446;53.850;10.662;2023-07-24T06:25:19;100108.50;;;18.86;100.00
64933;BME280;51446;53.850;10.662;2023-07-24T06:27:44;100101.91;;;19.00;100.00
64933;BME280;51446;53.850;10.662;2023-07-24T06:30:09;100102.59;;;19.06;100.00
64933;BME280;51446;53.850;10.662;2023-07-24T06:32:35;100101.19;;;19.24;100.00
64933;BME280;51446;53.850;10.662;2023-07-24T06:35:00;100099.47;;;19.50;100.00
64933;BME280;51446;53.850;10.662;2023-07-24T06:37:25;100091.69;;;19.99;100.00
64933;BME280;51446;53.850;10.662;2023-07-24T06:39:50;100096.31;;;19.94;100.00
64933;BME280;51446;53.850;10.662;2023-07-24T06:42:16;100095.00;;;19.81;100.00
64933;BME280;51446;53.850;10.662;2023-07-24T06:44:41;100091.13;;;19.63;100.00
64933;BME280;51446;53.850;10.662;2023-07-24T06:47:06;100087.72;;;19.57;100.00
64933;BME280;51446;53.850;10.662;2023-07-24T06:49:31;100091.50;;;19.50;100.00
64933;BME280;51446;53.850;10.662;2023-07-24T06:51:57;100092.91;;;19.62;100.00
64933;BME280;51446;53.850;10.662;2023-07-24T06:54:22;100090.97;;;19.67;100.00
64933;BME280;51446;53.850;10.662;2023-07-24T06:56:47;100083.94;;;19.65;100.00
64933;BME280;51446;53.850;10.662;2023-07-24T06:59:12;100091.25;;;19.86;100.00
64933;BME280;51446;53.850;10.662;2023-07-24T07:01:38;100082.25;;;20.90;100.00
64933;BME280;51446;53.850;10.662;2023-07-24T07:04:03;100076.81;;;21.17;100.00
64933;BME280;51446;53.850;10.662;2023-07-24T07:06:28;100066.69;;;21.47;100.00
64933;BME280;51446;53.850;10.662;2023-07-24T07:08:53;100070.69;;;21.59;100.00
64933;BME280;51446;53.850;10.662;2023-07-24T07:11:19;100068.88;;;21.37;100.00
64933;BME280;51446;53.850;10.662;2023-07-24T07:13:44;100067.50;;;21.27;100.00
64933;BME280;51446;53.850;10.662;2023-07-24T07:16:09;100070.22;;;22.12;100.00
64933;BME280;51446;53.850;10.662;2023-07-24T07:18:34;100066.72;;;22.72;100.00
64933;BME280;51446;53.850;10.662;2023-07-24T07:21:00;100052.06;;;23.92;100.00
64933;BME280;51446;53.850;10.662;2023-07-24T07:23:25;100054.38;;;23.63;100.00
64933;BME280;51446;53.850;10.662;2023-07-24T07:25:51;100059.94;;;23.03;100.00
64933;BME280;51446;53.850;10.662;2023-07-24T07:28:16;100061.38;;;22.72;100.00
64933;BME280;51446;53.850;10.662;2023-07-24T07:30:43;100057.63;;;22.16;100.00
64933;BME280;51446;53.850;10.662;2023-07-24T07:33:08;100061.69;;;22.04;100.00
64933;BME280;51446;53.850;10.662;2023-07-24T07:35:34;100062.28;;;21.90;100.00
64933;BME280;51446;53.850;10.662;2023-07-24T07:38:01;100058.94;;;23.25;100.00
64933;BME280;51446;53.850;10.662;2023-07-24T07:40:26;100050.91;;;24.82;100.00
64933;BME280;51446;53.850;10.662;2023-07-24T07:42:55;100048.09;;;23.82;100.00
64933;BME280;51446;53.850;10.662;2023-07-24T07:45:22;100053.50;;;22.88;100.00
64933;BME280;51446;53.850;10.662;2023-07-24T07:47:47;100058.03;;;21.64;100.00
64933;BME280;51446;53.850;10.662;2023-07-24T07:50:12;100062.75;;;21.57;100.00
64933;BME280;51446;53.850;10.662;2023-07-24T07:52:38;100063.47;;;21.17;100.00
64933;BME280;51446;53.850;10.662;2023-07-24T07:55:03;100063.06;;;20.82;100.00
64933;BME280;51446;53.850;10.662;2023-07-24T07:57:31;100055.00;;;20.83;100.00
64933;BME280;51446;53.850;10.662;2023-07-24T07:59:56;100063.09;;;20.80;100.00
64933;BME280;51446;53.850;10.662;2023-07-24T08:02:21;100063.38;;;20.96;100.00
64933;BME280;51446;53.850;10.662;2023-07-24T08:04:47;100067.16;;;20.90;100.00
64933;BME280;51446;53.850;10.662;2023-07-24T08:07:12;100074.50;;;20.58;100.00
64933;BME280;51446;53.850;10.662;2023-07-24T08:09:37;100065.53;;;20.61;100.00
64933;BME280;51446;53.850;10.662;2023-07-24T08:12:03;100061.81;;;20.67;100.00
64933;BME280;51446;53.850;10.662;2023-07-24T08:14:29;100064.50;;;20.90;100.00
64933;BME280;51446;53.850;10.662;2023-07-24T08:16:55;100074.31;;;20.65;100.00
64933;BME280;51446;53.850;10.662;2023-07-24T08:19:20;100056.91;;;20.79;100.00
64933;BME280;51446;53.850;10.662;2023-07-24T08:21:46;100060.47;;;20.78;100.00
64933;BME280;51446;53.850;10.662;2023-07-24T08:24:11;100074.63;;;20.55;100.00
64933;BME280;51446;53.850;10.662;2023-07-24T08:26:37;100067.91;;;20.45;100.00
64933;BME280;51446;53.850;10.662;2023-07-24T08:29:03;100070.91;;;20.36;100.00
64933;BME280;51446;53.850;10.662;2023-07-24T08:31:29;100064.69;;;20.60;100.00
64933;BME280;51446;53.850;10.662;2023-07-24T08:33:54;100060.53;;;20.28;100.00
64933;BME280;51446;53.850;10.662;2023-07-24T08:36:20;100059.44;;;20.34;100.00
64933;BME280;51446;53.850;10.662;2023-07-24T08:38:45;100054.41;;;20.26;100.00
64933;BME280;51446;53.850;10.662;2023-07-24T08:41:12;100056.66;;;20.37;100.00
64933;BME280;51446;53.850;10.662;2023-07-24T08:43:39;100054.81;;;20.39;100.00
64933;BME280;51446;53.850;10.662;2023-07-24T08:46:06;100047.88;;;20.58;100.00
64933;BME280;51446;53.850;10.662;2023-07-24T08:48:34;100053.56;;;20.49;100.00
64933;BME280;51446;53.850;10.662;2023-07-24T08:51:05;100058.56;;;20.33;100.00
64933;BME280;51446;53.850;10.662;2023-07-24T08:53:32;100047.22;;;20.28;100.00
64933;BME280;51446;53.850;10.662;2023-07-24T08:55:59;100026.63;;;20.57;100.00
64933;BME280;51446;53.850;10.662;2023-07-24T08:58:25;100027.78;;;20.75;100.00
64933;BME280;51446;53.850;10.662;2023-07-24T09:00:50;100038.16;;;21.05;100.00
64933;BME280;51446;53.850;10.662;2023-07-24T09:03:17;100035.75;;;21.21;100.00
64933;BME280;51446;53.850;10.662;2023-07-24T09:05:44;100038.81;;;21.34;100.00
64933;BME280;51446;53.850;10.662;2023-07-24T09:08:09;100037.78;;;21.14;100.00
64933;BME280;51446;53.850;10.662;2023-07-24T09:10:34;100046.44;;;20.97;100.00
64933;BME280;51446;53.850;10.662;2023-07-24T09:12:59;100051.75;;;20.75;100.00
64933;BME280;51446;53.850;10.662;2023-07-24T09:15:25;100036.75;;;20.72;100.00
64933;BME280;51446;53.850;10.662;2023-07-24T09:17:51;100036.50;;;20.78;100.00
64933;BME280;51446;53.850;10.662;2023-07-24T09:20:18;100036.06;;;20.67;100.00
64933;BME280;51446;53.850;10.662;2023-07-24T09:22:50;100040.66;;;20.62;100.00
64933;BME280;51446;53.850;10.662;2023-07-24T09:25:15;100054.41;;;20.50;100.00
64933;BME280;51446;53.850;10.662;2023-07-24T09:27:40;100042.47;;;20.61;100.00
64933;BME280;51446;53.850;10.662;2023-07-24T09:30:13;100045.00;;;20.65;100.00
64933;BME280;51446;53.850;10.662;2023-07-24T09:32:51;100038.22;;;21.25;100.00
64933;BME280;51446;53.850;10.662;2023-07-24T09:35:18;100045.84;;;22.80;100.00
64933;BME280;51446;53.850;10.662;2023-07-24T09:37:45;100043.59;;;23.65;100.00
64933;BME280;51446;53.850;10.662;2023-07-24T09:40:11;100027.53;;;23.82;100.00
64933;BME280;51446;53.850;10.662;2023-07-24T09:42:38;100028.25;;;24.03;100.00
64933;BME280;51446;53.850;10.662;2023-07-24T09:45:05;100028.25;;;23.68;100.00
64933;BME280;51446;53.850;10.662;2023-07-24T09:47:31;100027.59;;;23.81;100.00
64933;BME280;51446;53.850;10.662;2023-07-24T09:49:56;100025.63;;;24.53;100.00
64933;BME280;51446;53.850;10.662;2023-07-24T09:52:24;100016.13;;;24.14;100.00
64933;BME280;51446;53.850;10.662;2023-07-24T09:55:11;100022.63;;;23.00;100.00
64933;BME280;51446;53.850;10.662;2023-07-24T09:57:37;100026.69;;;22.10;100.00
64933;BME280;51446;53.850;10.662;2023-07-24T10:00:03;100024.53;;;22.98;100.00
64933;BME280;51446;53.850;10.662;2023-07-24T10:02:29;100012.91;;;23.18;100.00
64933;BME280;51446;53.850;10.662;2023-07-24T10:04:55;99995.16;;;23.69;100.00
64933;BME280;51446;53.850;10.662;2023-07-24T10:07:21;99991.16;;;22.88;100.00
64933;BME280;51446;53.850;10.662;2023-07-24T10:09:48;100000.06;;;23.25;100.00
64933;BME280;51446;53.850;10.662;2023-07-24T10:12:16;100004.88;;;22.61;100.00
64933;BME280;51446;53.850;10.662;2023-07-24T10:14:42;100003.47;;;22.33;100.00
64933;BME280;51446;53.850;10.662;2023-07-24T10:17:09;99998.16;;;22.71;100.00
64933;BME280;51446;53.850;10.662;2023-07-24T10:19:43;99997.66;;;21.61;100.00
64933;BME280;51446;53.850;10.662;2023-07-24T10:22:18;100014.34;;;22.08;100.00
64933;BME280;51446;53.850;10.662;2023-07-24T10:24:45;100005.09;;;22.56;100.00
64933;BME280;51446;53.850;10.662;2023-07-24T10:27:11;100003.00;;;22.82;100.00
64933;BME280;51446;53.850;10.662;2023-07-24T10:29:36;99995.47;;;23.09;100.00
64933;BME280;51446;53.850;10.662;2023-07-24T10:32:02;100003.81;;;23.40;100.00
64933;BME280;51446;53.850;10.662;2023-07-24T10:34:37;99997.06;;;23.67;100.00
64933;BME280;51446;53.850;10.662;2023-07-24T10:37:02;99993.28;;;24.06;100.00
64933;BME280;51446;53.850;10.662;2023-07-24T10:39:37;99993.91;;;23.77;100.00
64933;BME280;51446;53.850;10.662;2023-07-24T10:42:08;99986.72;;;24.46;100.00
64933;BME280;51446;53.850;10.662;2023-07-24T10:44:33;99991.03;;;24.82;99.38
64933;BME280;51446;53.850;10.662;2023-07-24T10:46:58;99981.16;;;25.14;95.18
64933;BME280;51446;53.850;10.662;2023-07-24T10:49:23;99977.03;;;25.55;89.35
64933;BME280;51446;53.850;10.662;2023-07-24T10:51:55;99978.03;;;25.38;90.55
64933;BME280;51446;53.850;10.662;2023-07-24T10:54:21;99986.19;;;25.04;91.93
64933;BME280;51446;53.850;10.662;2023-07-24T10:56:47;99982.56;;;24.56;94.85
64933;BME280;51446;53.850;10.662;2023-07-24T10:59:12;99985.31;;;24.72;93.40
64933;BME280;51446;53.850;10.662;2023-07-24T11:01:40;99986.00;;;24.26;91.76
64933;BME280;51446;53.850;10.662;2023-07-24T11:04:05;99984.59;;;23.84;96.44
64933;BME280;51446;53.850;10.662;2023-07-24T11:06:31;99989.28;;;24.65;94.18
64933;BME280;51446;53.850;10.662;2023-07-24T11:08:58;99996.53;;;23.96;94.76
64933;BME280;51446;53.850;10.662;2023-07-24T11:11:34;99984.97;;;24.78;93.55
64933;BME280;51446;53.850;10.662;2023-07-24T11:14:01;99979.03;;;24.55;92.89
64933;BME280;51446;53.850;10.662;2023-07-24T11:16:27;99971.22;;;24.68;89.63
64933;BME280;51446;53.850;10.662;2023-07-24T11:18:52;99963.69;;;23.92;90.46
64933;BME280;51446;53.850;10.662;2023-07-24T11:21:18;99960.31;;;24.22;93.35
64933;BME280;51446;53.850;10.662;2023-07-24T11:23:51;99969.19;;;24.06;95.52
64933;BME280;51446;53.850;10.662;2023-07-24T11:26:24;99971.06;;;23.69;94.27
64933;BME280;51446;53.850;10.662;2023-07-24T11:28:50;99970.69;;;23.95;95.28
64933;BME280;51446;53.850;10.662;2023-07-24T11:31:15;99969.16;;;24.89;90.00
64933;BME280;51446;53.850;10.662;2023-07-24T11:33:44;99962.19;;;25.33;85.65
64933;BME280;51446;53.850;10.662;2023-07-24T11:36:10;99969.84;;;24.93;89.63
64933;BME280;51446;53.850;10.662;2023-07-24T11:38:36;99968.09;;;24.60;90.42
64933;BME280;51446;53.850;10.662;2023-07-24T11:41:03;99963.84;;;25.36;87.37
64933;BME280;51446;53.850;10.662;2023-07-24T11:43:29;99969.84;;;24.77;87.69
64933;BME280;51446;53.850;10.662;2023-07-24T11:45:54;99966.75;;;25.47;86.22
64933;BME280;51446;53.850;10.662;2023-07-24T11:48:21;99965.25;;;25.11;87.44
64933;BME280;51446;53.850;10.662;2023-07-24T11:50:49;99958.25;;;24.76;90.92
64933;BME280;51446;53.850;10.662;2023-07-24T11:53:30;99961.03;;;24.75;94.00
64933;BME280;51446;53.850;10.662;2023-07-24T11:55:58;99954.06;;;24.55;94.58
64933;BME280;51446;53.850;10.662;2023-07-24T11:58:26;99949.59;;;24.87;94.17
64933;BME280;51446;53.850;10.662;2023-07-24T12:00:52;99944.38;;;25.00;93.54
64933;BME280;51446;53.850;10.662;2023-07-24T12:03:25;99946.13;;;25.48;88.57
64933;BME280;51446;53.850;10.662;2023-07-24T12:05:51;99945.72;;;25.23;89.82
64933;BME280;51446;53.850;10.662;2023-07-24T12:08:19;99943.88;;;24.77;89.17
64933;BME280;51446;53.850;10.662;2023-07-24T12:10:46;99938.41;;;25.11;89.27
64933;BME280;51446;53.850;10.662;2023-07-24T12:13:11;99941.94;;;25.11;89.14
64933;BME280;51446;53.850;10.662;2023-07-24T12:15:37;99937.91;;;24.88;88.75
64933;BME280;51446;53.850;10.662;2023-07-24T12:18:03;99937.53;;;24.47;89.04
64933;BME280;51446;53.850;10.662;2023-07-24T12:20:29;99927.72;;;24.63;90.02
64933;BME280;51446;53.850;10.662;2023-07-24T12:22:55;99929.63;;;25.39;86.30
64933;BME280;51446;53.850;10.662;2023-07-24T12:25:20;99913.84;;;25.63;86.68
64933;BME280;51446;53.850;10.662;2023-07-24T12:27:46;99926.84;;;25.41;86.97
64933;BME280;51446;53.850;10.662;2023-07-24T12:30:12;99926.25;;;24.89;84.66